createdAt,value
2018-09-22T00:00:22.642Z,4.47
2018-09-22T00:04:26.104Z,6.97
2018-09-22T00:08:29.520Z,2.90
2018-09-22T00:12:32.929Z,6.37
2018-09-22T00:16:36.279Z,2.77
2018-09-22T00:20:39.688Z,4.40
2018-09-22T00:24:43.027Z,5.20
2018-09-22T00:28:46.356Z,6.97
2018-09-22T00:32:50.470Z,9.40
2018-09-22T00:36:53.812Z,5.97
2018-09-22T00:40:57.186Z,8.63
2018-09-22T00:45:00.532Z,3.93
2018-09-22T00:49:03.909Z,8.73
2018-09-22T00:53:07.235Z,6.60
2018-09-22T00:57:10.591Z,4.87
2018-09-22T01:01:14.049Z,6.93
2018-09-22T01:05:17.611Z,5.70
2018-09-22T01:09:20.931Z,7.57
2018-09-22T01:13:24.292Z,4.07
2018-09-22T01:17:27.636Z,10.63
2018-09-22T01:21:30.962Z,3.83
2018-09-22T01:25:34.296Z,5.63
2018-09-22T01:29:37.676Z,6.13
2018-09-22T01:33:41.226Z,9.67
2018-09-22T01:37:44.602Z,7.50
2018-09-22T01:41:47.986Z,7.80
2018-09-22T01:45:51.314Z,10.20
2018-09-22T01:49:54.703Z,9.70
2018-09-22T01:53:58.026Z,3.90
2018-09-22T01:58:01.364Z,13.10
2018-09-22T02:02:04.696Z,9.07
2018-09-22T02:06:08.020Z,6.00
2018-09-22T02:10:11.351Z,8.57
2018-09-22T02:14:14.692Z,8.77
2018-09-22T02:18:18.034Z,9.07
2018-09-22T02:22:21.396Z,4.13
2018-09-22T02:26:24.739Z,5.70
2018-09-22T02:30:28.064Z,8.83
2018-09-22T02:34:31.401Z,8.43
2018-09-22T02:38:34.756Z,5.37
2018-09-22T02:42:38.067Z,7.33
2018-09-22T02:46:41.480Z,10.40
2018-09-22T02:50:44.894Z,10.60
2018-09-22T02:54:48.281Z,3.90
2018-09-22T02:58:51.642Z,7.87
2018-09-22T03:02:55.009Z,9.00
2018-09-22T03:06:58.397Z,7.30
2018-09-22T03:11:01.806Z,9.53
2018-09-22T03:15:06.048Z,8.47
2018-09-22T03:19:09.527Z,7.57
2018-09-22T03:23:12.832Z,7.03
2018-09-22T03:27:16.197Z,9.07
2018-09-22T03:31:19.643Z,8.07
2018-09-22T03:35:22.985Z,9.47
2018-09-22T03:39:26.349Z,11.37
2018-09-22T03:43:29.697Z,13.43
2018-09-22T03:47:33.039Z,10.27
2018-09-22T03:51:36.421Z,7.40
2018-09-22T03:55:40.264Z,6.73
2018-09-22T03:59:44.217Z,6.23
2018-09-22T04:03:48.355Z,10.10
2018-09-22T04:07:52.479Z,8.03
2018-09-22T04:11:56.632Z,6.20
2018-09-22T04:16:00.540Z,9.13
2018-09-22T04:20:03.937Z,10.40
2018-09-22T04:24:15.375Z,8.50
2018-09-22T04:28:18.687Z,7.70
2018-09-22T04:32:22.044Z,7.93
2018-09-22T04:36:25.396Z,10.13
2018-09-22T04:40:28.756Z,7.17
2018-09-22T04:44:32.104Z,8.07
2018-09-22T04:48:35.434Z,7.37
2018-09-22T04:52:38.788Z,6.53
2018-09-22T04:56:42.144Z,7.53
2018-09-22T05:00:45.620Z,12.17
2018-09-22T05:04:48.964Z,9.80
2018-09-22T05:08:52.288Z,8.90
2018-09-22T05:12:55.647Z,7.67
2018-09-22T05:16:59.062Z,6.60
2018-09-22T05:21:02.980Z,11.67
2018-09-22T05:25:06.384Z,6.87
2018-09-22T05:29:09.718Z,9.57
2018-09-22T05:33:13.078Z,10.03
2018-09-22T05:37:16.582Z,7.00
2018-09-22T05:41:19.992Z,6.20
2018-09-22T05:45:23.356Z,11.87
2018-09-22T05:49:26.684Z,8.33
2018-09-22T05:53:30.025Z,10.23
2018-09-22T05:57:33.372Z,10.90
2018-09-22T06:01:37.538Z,10.83
2018-09-22T06:05:40.895Z,9.60
2018-09-22T06:09:44.299Z,7.70
2018-09-22T06:13:48.052Z,10.43
2018-09-22T06:17:51.419Z,8.77
2018-09-22T06:21:54.767Z,11.27
2018-09-22T06:25:58.116Z,8.73
2018-09-22T06:30:01.463Z,13.03
2018-09-22T06:34:04.813Z,12.30
2018-09-22T06:38:08.144Z,12.87
2018-09-22T06:42:11.495Z,14.30
2018-09-22T06:46:14.877Z,11.73
2018-09-22T06:50:18.172Z,11.87
2018-09-22T06:54:21.517Z,13.97
2018-09-22T06:58:24.868Z,12.97
2018-09-22T07:02:28.214Z,13.00
2018-09-22T07:06:31.614Z,13.20
2018-09-22T07:10:34.936Z,12.97
2018-09-22T07:14:38.276Z,11.60
2018-09-22T07:18:41.623Z,9.73
2018-09-22T07:22:50.248Z,14.73
2018-09-22T07:26:53.593Z,11.93
2018-09-22T07:30:57.128Z,12.33
2018-09-22T07:35:00.460Z,11.27
2018-09-22T07:39:05.404Z,13.90
2018-09-22T07:43:08.773Z,10.33
2018-09-22T07:47:12.115Z,12.20
2018-09-22T07:51:15.434Z,12.67
2018-09-22T07:55:18.847Z,11.40
2018-09-22T07:59:22.222Z,10.77
2018-09-22T08:03:25.556Z,7.80
2018-09-22T08:07:28.909Z,9.87
2018-09-22T08:11:32.269Z,13.77
2018-09-22T08:15:35.610Z,9.90
2018-09-22T08:19:38.950Z,10.63
2018-09-22T08:23:42.300Z,10.10
2018-09-22T08:27:45.668Z,12.97
2018-09-22T08:31:49.041Z,10.40
2018-09-22T08:35:52.383Z,10.93
2018-09-22T08:39:55.769Z,8.80
2018-09-22T08:43:59.113Z,8.57
2018-09-22T08:48:02.449Z,12.67
2018-09-22T08:52:05.892Z,8.30
2018-09-22T08:56:09.214Z,9.43
2018-09-22T09:00:12.574Z,9.67
2018-09-22T09:04:15.917Z,8.83
2018-09-22T09:08:19.263Z,10.53
2018-09-22T09:12:22.617Z,9.40
2018-09-22T09:16:25.935Z,13.00
2018-09-22T09:20:29.401Z,7.13
2018-09-22T09:24:32.747Z,14.10
2018-09-22T09:28:36.179Z,10.37
2018-09-22T09:32:39.524Z,7.90
2018-09-22T09:36:42.868Z,9.87
2018-09-22T09:40:46.246Z,13.20
2018-09-22T09:44:49.596Z,9.77
2018-09-22T09:48:52.993Z,9.73
2018-09-22T09:52:56.335Z,9.93
2018-09-22T09:56:59.683Z,8.93
2018-09-22T10:01:03.023Z,11.40
2018-09-22T10:05:06.449Z,12.30
2018-09-22T10:09:10.468Z,11.97
2018-09-22T10:13:13.854Z,7.00
2018-09-22T10:17:17.196Z,10.03
2018-09-22T10:21:20.528Z,8.20
2018-09-22T10:25:23.898Z,8.57
2018-09-22T10:29:27.229Z,15.53
2018-09-22T10:33:30.544Z,9.27
2018-09-22T10:37:34.140Z,8.60
2018-09-22T10:41:37.485Z,10.00
2018-09-22T10:45:40.807Z,8.07
2018-09-22T10:49:44.132Z,12.03
2018-09-22T10:53:47.456Z,14.10
2018-09-22T10:57:50.755Z,9.17
2018-09-22T11:01:54.064Z,8.97
2018-09-22T11:05:57.411Z,9.30
2018-09-22T11:10:00.732Z,9.60
2018-09-22T11:14:04.081Z,8.13
2018-09-22T11:18:07.543Z,8.20
2018-09-22T11:22:10.867Z,8.53
2018-09-22T11:26:14.204Z,7.73
2018-09-22T11:30:17.516Z,7.70
2018-09-22T11:34:20.834Z,8.93
2018-09-22T11:38:24.190Z,7.97
2018-09-22T11:42:27.458Z,9.07
2018-09-22T11:46:30.787Z,9.80
2018-09-22T11:50:34.130Z,5.97
2018-09-22T11:54:37.468Z,9.80
2018-09-22T11:58:40.776Z,11.40
2018-09-22T12:02:44.110Z,6.63
2018-09-22T12:06:47.543Z,9.77
2018-09-22T12:10:50.840Z,8.67
2018-09-22T12:14:54.160Z,9.20
2018-09-22T12:18:57.476Z,8.03
2018-09-22T12:23:01.058Z,6.87
2018-09-22T12:27:04.393Z,6.53
2018-09-22T12:31:07.716Z,8.73
2018-09-22T12:35:11.040Z,11.53
2018-09-22T12:39:14.344Z,7.80
2018-09-22T12:43:17.670Z,6.20
2018-09-22T12:47:21.013Z,11.10
2018-09-22T12:51:24.342Z,10.37
2018-09-22T12:55:27.659Z,9.50
2018-09-22T12:59:31.086Z,8.87
2018-09-22T13:03:34.405Z,4.60
2018-09-22T13:07:37.759Z,9.00
2018-09-22T13:11:41.133Z,7.97
2018-09-22T13:15:44.575Z,11.80
2018-09-22T13:19:47.919Z,8.80
2018-09-22T13:23:51.236Z,8.23
2018-09-22T13:27:54.562Z,8.63
2018-09-22T13:31:58.047Z,7.03
2018-09-22T13:36:01.405Z,6.97
2018-09-22T13:40:04.781Z,7.47
2018-09-22T13:44:08.192Z,7.00
2018-09-22T13:48:11.515Z,7.27
2018-09-22T13:52:14.885Z,7.77
2018-09-22T13:56:18.254Z,6.60
2018-09-22T14:00:21.602Z,5.90
2018-09-22T14:04:24.904Z,5.37
2018-09-22T14:08:28.244Z,6.20
2018-09-22T14:12:31.625Z,5.07
2018-09-22T14:16:34.983Z,3.17
2018-09-22T14:20:38.328Z,1.00
2018-09-22T14:24:41.640Z,4.73
2018-09-22T14:28:44.999Z,2.53
2018-09-22T14:32:48.355Z,4.13
2018-09-22T14:36:51.705Z,3.53
2018-09-22T14:40:55.061Z,1.33
2018-09-22T14:44:58.394Z,2.40
2018-09-22T14:49:01.744Z,1.20
2018-09-22T14:53:05.117Z,1.33
2018-09-22T14:57:08.852Z,1.33
2018-09-22T15:01:12.264Z,1.93
2018-09-22T15:05:15.588Z,1.80
2018-09-22T15:09:18.923Z,2.37
2018-09-22T15:13:22.276Z,2.10
2018-09-22T15:17:25.683Z,2.33
2018-09-22T15:21:29.005Z,2.00
2018-09-22T15:25:32.317Z,1.97
2018-09-22T15:29:35.660Z,1.10
2018-09-22T15:33:39.026Z,2.00
2018-09-22T15:37:42.369Z,1.33
2018-09-22T15:41:45.703Z,1.10
2018-09-22T15:45:49.068Z,2.83
2018-09-22T15:49:52.455Z,6.00
2018-09-22T15:53:55.783Z,2.40
2018-09-22T15:57:59.112Z,2.77
2018-09-22T16:02:02.435Z,2.83
2018-09-22T16:06:05.743Z,2.03
2018-09-22T16:10:09.071Z,2.40
2018-09-22T16:14:12.429Z,1.93
2018-09-22T16:18:15.756Z,3.10
2018-09-22T16:22:19.080Z,7.13
2018-09-22T16:26:22.404Z,2.57
2018-09-22T16:30:25.749Z,3.43
2018-09-22T16:34:29.179Z,4.73
2018-09-22T16:38:32.518Z,2.20
2018-09-22T16:42:35.848Z,3.23
2018-09-22T16:46:39.176Z,2.53
2018-09-22T16:50:42.515Z,2.93
2018-09-22T16:54:45.864Z,2.93
2018-09-22T16:58:49.215Z,4.23
2018-09-22T17:02:52.558Z,2.53
2018-09-22T17:06:55.884Z,4.47
2018-09-22T17:10:59.239Z,3.07
2018-09-22T17:15:02.599Z,4.33
2018-09-22T17:19:06.060Z,3.93
2018-09-22T17:23:09.396Z,3.77
2018-09-22T17:27:12.980Z,4.00
2018-09-22T17:31:16.319Z,3.87
2018-09-22T17:35:19.656Z,4.20
2018-09-22T17:39:23.207Z,3.27
2018-09-22T17:43:26.548Z,7.00
2018-09-22T17:47:29.993Z,4.10
2018-09-22T17:51:33.307Z,8.30
2018-09-22T17:55:36.652Z,6.33
2018-09-22T17:59:40.184Z,5.83
2018-09-22T18:03:43.471Z,8.20
2018-09-22T18:07:46.816Z,4.97
2018-09-22T18:11:50.171Z,2.00
2018-09-22T18:15:53.551Z,2.93
2018-09-22T18:19:56.900Z,2.40
2018-09-22T18:24:00.250Z,3.03
2018-09-22T18:28:03.569Z,3.57
2018-09-22T18:32:06.903Z,4.00
2018-09-22T18:36:10.251Z,3.03
2018-09-22T18:40:13.596Z,2.67
2018-09-22T18:44:16.944Z,2.50
2018-09-22T18:48:20.279Z,4.07
2018-09-22T18:52:23.645Z,3.57
2018-09-22T18:56:27.000Z,3.10
2018-09-22T19:00:30.331Z,2.83
2018-09-22T19:04:33.813Z,1.57
2018-09-22T19:08:37.172Z,4.10
2018-09-22T19:12:41.638Z,2.67
2018-09-22T19:16:51.486Z,4.17
2018-09-22T19:21:00.214Z,4.83
2018-09-22T19:25:08.295Z,5.53
2018-09-22T19:29:15.568Z,4.30
2018-09-22T19:33:22.994Z,3.90
2018-09-22T19:37:30.227Z,6.30
2018-09-22T19:41:37.151Z,6.73
2018-09-22T19:45:49.555Z,4.50
2018-09-22T19:49:55.932Z,5.87
2018-09-22T19:54:00.044Z,4.90
2018-09-22T19:58:03.426Z,5.97
2018-09-22T20:02:06.832Z,7.17
2018-09-22T20:06:10.224Z,7.17
2018-09-22T20:10:13.585Z,5.20
2018-09-22T20:14:17.056Z,5.93
2018-09-22T20:18:20.687Z,6.63
2018-09-22T20:22:24.158Z,5.07
2018-09-22T20:26:27.512Z,8.00
2018-09-22T20:30:31.355Z,5.00
2018-09-22T20:34:34.708Z,5.70
2018-09-22T20:38:38.084Z,6.00
2018-09-22T20:42:41.425Z,5.90
2018-09-22T20:46:44.811Z,6.27
2018-09-22T20:50:48.165Z,7.03
2018-09-22T20:54:51.532Z,8.03
2018-09-22T20:58:54.895Z,7.97
2018-09-22T21:02:58.264Z,7.53
2018-09-22T21:07:01.596Z,9.97
2018-09-22T21:11:04.987Z,7.73
2018-09-22T21:15:08.323Z,7.43
2018-09-22T21:19:11.696Z,7.87
2018-09-22T21:23:21.781Z,7.00
2018-09-22T21:27:25.140Z,11.03
2018-09-22T21:31:28.500Z,7.37
2018-09-22T21:35:31.925Z,7.50
2018-09-22T21:39:35.332Z,7.73
2018-09-22T21:43:38.774Z,7.53
2018-09-22T21:47:42.978Z,10.50
2018-09-22T21:51:46.360Z,7.63
2018-09-22T21:55:49.748Z,7.97
2018-09-22T21:59:53.088Z,7.70
2018-09-22T22:03:56.423Z,8.80
2018-09-22T22:07:59.755Z,10.30
2018-09-22T22:12:03.095Z,10.33
2018-09-22T22:16:06.420Z,11.33
2018-09-22T22:20:10.214Z,8.73
2018-09-22T22:24:13.540Z,8.70
2018-09-22T22:28:17.141Z,9.30
2018-09-22T22:32:20.592Z,10.57
2018-09-22T22:36:23.923Z,8.93
2018-09-22T22:40:27.268Z,9.33
2018-09-22T22:44:31.016Z,8.80
2018-09-22T22:48:34.377Z,10.67
2018-09-22T22:52:37.712Z,9.40
2018-09-22T22:56:41.036Z,10.77
2018-09-22T23:00:44.439Z,10.00
2018-09-22T23:04:47.776Z,10.00
2018-09-22T23:08:51.124Z,9.37
2018-09-22T23:12:54.467Z,9.57
2018-09-22T23:16:57.817Z,9.97
2018-09-22T23:21:01.280Z,13.07
2018-09-22T23:25:04.677Z,9.97
2018-09-22T23:29:08.073Z,9.60
2018-09-22T23:33:11.409Z,10.83
2018-09-22T23:37:14.755Z,14.23
2018-09-22T23:41:18.079Z,10.90
2018-09-22T23:45:21.419Z,12.00
2018-09-22T23:49:24.773Z,10.63
2018-09-22T23:53:28.114Z,12.43
2018-09-22T23:57:31.435Z,10.90
